createdAt,value
2018-07-31T00:02:37.672Z,100360.88
2018-07-31T00:07:35.064Z,100357.92
2018-07-31T00:12:32.478Z,100352.05
2018-07-31T00:17:29.895Z,100346.17
2018-07-31T00:22:27.316Z,100344.58
2018-07-31T00:27:24.720Z,100347.76
2018-07-31T00:32:22.105Z,100349.94
2018-07-31T00:37:19.522Z,100351.28
2018-07-31T00:42:16.900Z,100353.41
2018-07-31T00:47:14.298Z,100356.09
2018-07-31T00:52:11.693Z,100354.47
2018-07-31T00:57:09.097Z,100348.86
2018-07-31T01:02:06.545Z,100347.98
2018-07-31T01:07:04.294Z,100351.28
2018-07-31T01:12:01.719Z,100347.42
2018-07-31T01:16:59.107Z,100353.14
2018-07-31T01:21:56.566Z,100359.83
2018-07-31T01:26:54.091Z,100357.09
2018-07-31T01:31:51.471Z,100358.23
2018-07-31T01:36:48.872Z,100354.42
2018-07-31T01:41:46.310Z,100351.98
2018-07-31T01:46:43.691Z,100343.69
2018-07-31T01:51:41.096Z,100346.60
2018-07-31T01:56:38.475Z,100346.30
2018-07-31T02:01:35.894Z,100339.11
2018-07-31T02:06:33.302Z,100341.25
2018-07-31T02:11:30.695Z,100341.53
2018-07-31T02:16:28.074Z,100340.23
2018-07-31T02:21:25.503Z,100328.11
2018-07-31T02:26:22.975Z,100325.97
2018-07-31T02:31:20.379Z,100327.53
2018-07-31T02:36:17.783Z,100333.23
2018-07-31T02:41:15.187Z,100324.53
2018-07-31T02:46:12.596Z,100338.00
2018-07-31T02:51:10.045Z,100340.09
2018-07-31T02:56:07.467Z,100342.16
2018-07-31T03:01:04.923Z,100340.86
2018-07-31T03:06:02.362Z,100334.78
2018-07-31T03:10:59.818Z,100342.75
2018-07-31T03:15:57.231Z,100338.20
2018-07-31T03:20:54.715Z,100337.16
2018-07-31T03:25:52.258Z,100334.38
2018-07-31T03:30:49.687Z,100337.69
2018-07-31T03:35:47.108Z,100340.01
2018-07-31T03:40:44.579Z,100331.86
2018-07-31T03:45:42.055Z,100335.89
2018-07-31T03:50:39.496Z,100334.83
2018-07-31T03:55:36.964Z,100339.34
2018-07-31T04:00:34.323Z,100335.37
2018-07-31T04:05:31.831Z,100349.01
2018-07-31T04:10:29.283Z,100341.31
2018-07-31T04:15:26.711Z,100354.12
2018-07-31T04:20:24.439Z,100356.55
2018-07-31T04:25:22.311Z,100362.42
2018-07-31T04:30:19.736Z,100365.14
2018-07-31T04:35:17.213Z,100376.95
2018-07-31T04:40:14.644Z,100397.80
2018-07-31T04:45:12.097Z,100395.14
2018-07-31T04:50:10.459Z,100389.79
2018-07-31T04:55:07.869Z,100394.36
2018-07-31T05:00:07.289Z,100389.52
2018-07-31T05:05:04.835Z,100395.69
2018-07-31T05:10:02.280Z,100394.07
2018-07-31T05:14:59.675Z,100390.05
2018-07-31T05:19:57.126Z,100405.03
2018-07-31T05:24:55.150Z,100411.20
2018-07-31T05:29:52.580Z,100405.80
2018-07-31T05:34:49.992Z,100410.88
2018-07-31T05:39:47.399Z,100411.88
2018-07-31T05:44:44.810Z,100425.39
2018-07-31T05:49:42.259Z,100423.17
2018-07-31T05:54:39.986Z,100417.16
2018-07-31T05:59:37.422Z,100427.42
2018-07-31T06:04:34.908Z,100439.15
2018-07-31T06:09:32.397Z,100432.20
2018-07-31T06:14:29.769Z,100442.86
2018-07-31T06:19:27.205Z,100449.89
2018-07-31T06:24:24.675Z,100448.19
2018-07-31T06:29:22.115Z,100433.64
2018-07-31T06:34:19.518Z,100438.86
2018-07-31T06:39:16.937Z,100444.75
2018-07-31T06:44:14.372Z,100456.80
2018-07-31T06:49:12.759Z,100451.34
2018-07-31T06:54:10.228Z,100449.20
2018-07-31T06:59:07.631Z,100434.59
2018-07-31T07:04:05.127Z,100440.40
2018-07-31T07:09:02.863Z,100443.86
2018-07-31T07:14:00.278Z,100466.84
2018-07-31T07:18:57.701Z,100464.22
2018-07-31T07:23:56.617Z,100471.14
2018-07-31T07:28:56.158Z,100477.88
2018-07-31T07:33:53.622Z,100473.77
2018-07-31T07:38:51.030Z,100477.98
2018-07-31T07:43:48.448Z,100475.56
2018-07-31T07:48:45.880Z,100461.16
2018-07-31T07:53:44.363Z,100478.88
2018-07-31T07:58:41.762Z,100476.82
2018-07-31T08:03:39.193Z,100477.28
2018-07-31T08:08:36.613Z,100475.63
2018-07-31T08:13:34.025Z,100470.86
2018-07-31T08:18:34.466Z,100467.38
2018-07-31T08:23:39.921Z,100474.13
2018-07-31T08:28:37.386Z,100473.89
2018-07-31T08:33:34.866Z,100477.69
2018-07-31T08:38:32.305Z,100477.37
2018-07-31T08:43:29.675Z,100470.86
2018-07-31T08:48:27.108Z,100475.28
2018-07-31T08:53:32.832Z,100470.59
2018-07-31T08:58:30.243Z,100461.77
2018-07-31T09:03:27.745Z,100476.03
2018-07-31T09:08:25.261Z,100470.66
2018-07-31T09:13:22.630Z,100474.98
2018-07-31T09:18:20.029Z,100473.00
2018-07-31T09:23:20.549Z,100467.95
2018-07-31T09:28:18.576Z,100472.03
2018-07-31T09:33:16.025Z,100477.71
2018-07-31T09:38:13.439Z,100471.02
2018-07-31T09:43:10.879Z,100476.95
2018-07-31T09:48:08.322Z,100466.19
2018-07-31T09:53:12.763Z,100468.22
2018-07-31T09:58:10.300Z,100466.23
2018-07-31T10:03:07.748Z,100463.81
2018-07-31T10:08:05.626Z,100445.77
2018-07-31T10:13:03.128Z,100453.20
2018-07-31T10:18:00.684Z,100447.24
2018-07-31T10:22:59.645Z,100450.67
2018-07-31T10:28:03.706Z,100457.44
2018-07-31T10:33:01.289Z,100451.91
2018-07-31T10:37:58.763Z,100453.03
2018-07-31T10:42:56.291Z,100461.66
2018-07-31T10:47:53.765Z,100461.34
2018-07-31T10:52:53.700Z,100448.75
2018-07-31T10:57:51.299Z,100464.74
2018-07-31T11:02:48.837Z,100459.61
2018-07-31T11:07:46.237Z,100466.32
2018-07-31T11:12:43.734Z,100465.09
2018-07-31T11:17:41.332Z,100461.88
2018-07-31T11:22:38.837Z,100457.55
2018-07-31T11:27:36.409Z,100456.05
2018-07-31T11:32:33.763Z,100461.73
2018-07-31T11:37:31.203Z,100449.14
2018-07-31T11:42:28.671Z,100452.38
2018-07-31T11:47:26.124Z,100446.92
2018-07-31T11:52:23.564Z,100430.42
2018-07-31T11:57:20.983Z,100441.02
2018-07-31T12:02:18.406Z,100443.30
2018-07-31T12:07:15.859Z,100441.70
2018-07-31T12:12:13.307Z,100431.24
2018-07-31T12:17:10.755Z,100445.95
2018-07-31T12:22:08.187Z,100442.81
2018-07-31T12:27:05.712Z,100453.03
2018-07-31T12:32:03.195Z,100450.07
2018-07-31T12:37:00.605Z,100452.05
2018-07-31T12:41:58.038Z,100459.42
2018-07-31T12:46:55.480Z,100463.59
2018-07-31T12:51:53.771Z,100461.14
2018-07-31T12:56:51.279Z,100458.45
2018-07-31T13:01:48.695Z,100466.45
2018-07-31T13:06:46.228Z,100466.69
2018-07-31T13:11:43.635Z,100463.53
2018-07-31T13:16:41.072Z,100455.91
2018-07-31T13:21:38.544Z,100459.85
2018-07-31T13:26:36.014Z,100451.33
2018-07-31T13:31:33.483Z,100453.05
2018-07-31T13:36:30.918Z,100444.43
2018-07-31T13:41:28.362Z,100448.52
2018-07-31T13:46:25.815Z,100448.67
2018-07-31T13:51:23.251Z,100446.25
2018-07-31T13:56:20.659Z,100439.06
2018-07-31T14:01:18.124Z,100443.35
2018-07-31T14:06:22.243Z,100446.91
2018-07-31T14:11:19.701Z,100450.24
2018-07-31T14:16:17.123Z,100449.20
2018-07-31T14:21:17.083Z,100438.12
2018-07-31T14:26:14.555Z,100449.95
2018-07-31T14:31:12.154Z,100456.80
2018-07-31T14:36:09.616Z,100453.49
2018-07-31T14:41:07.065Z,100441.89
2018-07-31T14:46:04.527Z,100441.82
2018-07-31T14:51:01.978Z,100442.28
2018-07-31T14:55:59.435Z,100441.94
2018-07-31T15:00:56.863Z,100442.98
2018-07-31T15:05:54.355Z,100444.34
2018-07-31T15:10:51.864Z,100456.53
2018-07-31T15:15:49.258Z,100453.25
2018-07-31T15:20:46.779Z,100448.09
2018-07-31T15:25:44.239Z,100454.00
2018-07-31T15:30:41.699Z,100456.81
2018-07-31T15:35:39.171Z,100452.45
2018-07-31T15:40:36.601Z,100461.92
2018-07-31T15:45:34.123Z,100472.37
2018-07-31T15:50:31.545Z,100470.42
2018-07-31T15:55:29.014Z,100461.70
2018-07-31T16:00:26.493Z,100465.11
2018-07-31T16:05:23.947Z,100473.98
2018-07-31T16:10:21.375Z,100491.76
2018-07-31T16:15:18.771Z,100481.30
2018-07-31T16:20:16.292Z,100476.99
2018-07-31T16:25:13.743Z,100482.41
2018-07-31T16:30:11.211Z,100473.02
2018-07-31T16:35:08.644Z,100485.12
2018-07-31T16:40:06.148Z,100488.83
2018-07-31T16:45:03.785Z,100499.27
2018-07-31T16:50:01.224Z,100503.41
2018-07-31T16:54:58.647Z,100502.03
2018-07-31T16:59:56.140Z,100506.78
2018-07-31T17:04:53.608Z,100509.25
2018-07-31T17:09:51.048Z,100516.86
2018-07-31T17:14:48.481Z,100517.25
2018-07-31T17:19:45.921Z,100507.86
2018-07-31T17:24:43.370Z,100520.96
2018-07-31T17:29:40.843Z,100525.98
2018-07-31T17:34:38.315Z,100533.55
2018-07-31T17:39:35.730Z,100537.72
2018-07-31T17:44:33.180Z,100544.06
2018-07-31T17:49:30.726Z,100554.49
2018-07-31T17:54:28.949Z,100553.91
2018-07-31T17:59:26.379Z,100566.46
2018-07-31T18:04:24.669Z,100568.23
2018-07-31T18:09:22.058Z,100568.48
2018-07-31T18:14:19.666Z,100583.27
2018-07-31T18:19:16.976Z,100584.91
2018-07-31T18:24:14.515Z,100594.27
2018-07-31T18:29:12.023Z,100610.34
2018-07-31T18:34:09.360Z,100617.26
2018-07-31T18:39:09.448Z,100616.59
2018-07-31T18:44:06.902Z,100632.64
2018-07-31T18:49:04.522Z,100634.74
2018-07-31T18:54:02.367Z,100645.12
2018-07-31T18:58:59.906Z,100659.52
2018-07-31T19:03:57.321Z,100673.81
2018-07-31T19:08:54.768Z,100687.92
2018-07-31T19:13:52.208Z,100688.13
2018-07-31T19:18:49.659Z,100702.05
2018-07-31T19:23:48.174Z,100704.01
2018-07-31T19:28:45.617Z,100709.57
2018-07-31T19:33:44.859Z,100713.45
2018-07-31T19:39:14.742Z,100720.06
2018-07-31T19:44:24.411Z,100734.52
2018-07-31T19:49:39.538Z,100738.17
2018-07-31T20:00:03.202Z,100764.28
2018-07-31T20:05:10.185Z,100758.16
2018-07-31T20:10:07.714Z,100765.70
2018-07-31T20:15:05.143Z,100784.42
2018-07-31T20:20:02.603Z,100778.45
2018-07-31T20:25:00.034Z,100785.91
2018-07-31T20:29:57.410Z,100794.88
2018-07-31T20:34:54.823Z,100795.77
2018-07-31T20:39:52.241Z,100792.56
2018-07-31T20:44:49.690Z,100781.91
2018-07-31T20:49:47.073Z,100802.41
2018-07-31T20:54:44.464Z,100808.19
2018-07-31T20:59:41.892Z,100814.41
2018-07-31T21:04:39.258Z,100824.94
2018-07-31T21:09:36.647Z,100824.64
2018-07-31T21:14:34.121Z,100840.58
2018-07-31T21:19:31.514Z,100847.44
2018-07-31T21:24:28.898Z,100847.91
2018-07-31T21:29:26.351Z,100849.89
2018-07-31T21:34:23.722Z,100836.17
2018-07-31T21:39:21.126Z,100840.76
2018-07-31T21:44:18.541Z,100852.09
2018-07-31T21:49:15.962Z,100855.30
2018-07-31T21:54:13.361Z,100863.92
2018-07-31T21:59:10.740Z,100871.72
2018-07-31T22:04:08.170Z,100876.83
2018-07-31T22:09:07.104Z,100879.27
2018-07-31T22:14:04.510Z,100889.74
2018-07-31T22:19:01.892Z,100885.23
2018-07-31T22:24:00.105Z,100884.13
2018-07-31T22:28:57.504Z,100890.33
2018-07-31T22:33:54.886Z,100873.14
2018-07-31T22:38:52.262Z,100883.09
2018-07-31T22:43:49.652Z,100892.20
2018-07-31T22:48:47.046Z,100881.76
2018-07-31T22:53:45.522Z,100889.27
2018-07-31T22:58:42.938Z,100892.20
2018-07-31T23:03:40.339Z,100894.61
2018-07-31T23:08:37.739Z,100895.91
2018-07-31T23:13:35.122Z,100901.56
2018-07-31T23:18:32.510Z,100902.91
2018-07-31T23:23:30.946Z,100923.55
2018-07-31T23:28:28.394Z,100924.87
2018-07-31T23:33:25.792Z,100919.20
2018-07-31T23:38:23.199Z,100919.20
2018-07-31T23:43:20.614Z,100920.00
2018-07-31T23:48:18.019Z,100929.40
2018-07-31T23:53:19.526Z,100933.14
2018-07-31T23:58:16.971Z,100930.15
